Coopersville, New York
Current Conditions -  °F | °C
As of 9:15 AM on Tuesday 27 Jan 2015 (Local Time) from KFSO Reporting Station
Clear Clear  
Wind Chill: -10°   Ceiling: Unl
Heat Index:   Visibility: 10mi
Dew Point: -5°   Wind: 13mph
Humidity: 61%   Direction: 360°N
Pressure: 30.01"   Gusts: 21mph
Location:  44.9684°N, 73.45°W
Report Text: KFSO 271415Z AUTO 36011G18KT 10SM CLR M14/M20 A3001 RMK AO2 T11421203
Loading
Personal Weather Stations






























Interactive Weather Map New forecast layout! Learn more

10-Day Weather Forecast

Advertisements
Track Severe Weather on mobile